Time;durP1;ratioP1;P1;durP2;ratioP2;P2;SDS_P1;SDS_P2;PMS_P1;PMS_P2;Temp;Humidity;BMP_temperature;BMP_pressure;BME280_temperature;BME280_humidity;BME280_pressure;Samples;Min_cycle;Max_cycle;Signal;HPM_P1;HPM_P2
2023/06/12 00:01:17;;;;;;;6.15;3.10;;;15.10;98.50;;;;;;5038337;28;20259;-89
2023/06/12 00:03:44;;;;;;;7.03;3.00;;;15.10;98.50;;;;;;5036558;28;20251;-89
2023/06/12 00:06:12;;;;;;;4.67;3.23;;;15.00;98.70;;;;;;5037582;28;20224;-89
2023/06/12 00:08:41;;;;;;;6.37;2.97;;;15.00;98.70;;;;;;5040490;28;20224;-89
2023/06/12 00:11:12;;;;;;;6.47;2.93;;;15.00;98.60;;;;;;5031947;28;20226;-89
2023/06/12 00:13:39;;;;;;;4.73;3.07;;;14.90;98.60;;;;;;5033707;28;20234;-89
2023/06/12 00:16:08;;;;;;;6.70;2.93;;;14.90;98.70;;;;;;5041349;28;20223;-88
2023/06/12 00:18:35;;;;;;;5.57;2.90;;;14.90;98.80;;;;;;5039782;28;20286;-88
2023/06/12 00:21:02;;;;;;;7.07;3.20;;;14.80;98.70;;;;;;5029708;28;20763;-89
2023/06/12 00:23:29;;;;;;;6.27;3.07;;;14.80;98.80;;;;;;5026413;28;20225;-88
2023/06/12 00:25:56;;;;;;;8.87;2.77;;;14.80;98.90;;;;;;5037120;28;20706;-88
2023/06/12 00:28:23;;;;;;;5.13;3.03;;;14.70;98.90;;;;;;5043357;28;20232;-88
2023/06/12 00:30:50;;;;;;;5.57;2.80;;;14.70;98.90;;;;;;5038246;28;20294;-88
2023/06/12 00:33:18;;;;;;;4.43;2.70;;;14.70;99.00;;;;;;5035829;28;20285;-88
2023/06/12 00:35:46;;;;;;;7.57;3.30;;;14.70;99.10;;;;;;5028994;28;20270;-90
2023/06/12 00:38:13;;;;;;;5.50;3.13;;;14.60;99.10;;;;;;5038806;28;20227;-89
2023/06/12 00:40:40;;;;;;;5.50;3.30;;;14.60;99.10;;;;;;5029640;28;20243;-90
2023/06/12 00:43:08;;;;;;;9.00;3.20;;;14.60;99.20;;;;;;5032631;28;20310;-89
2023/06/12 00:45:35;;;;;;;3.13;2.67;;;14.60;99.20;;;;;;5036046;28;20254;-89
2023/06/12 00:48:04;;;;;;;5.33;2.90;;;14.50;99.20;;;;;;5046119;28;20820;-89
2023/06/12 00:50:33;;;;;;;7.37;3.20;;;14.50;99.40;;;;;;5030860;28;20228;-89
2023/06/12 00:53:00;;;;;;;7.40;2.77;;;14.50;99.50;;;;;;5039541;28;20239;-89
2023/06/12 00:55:30;;;;;;;5.33;2.83;;;14.50;99.40;;;;;;5041835;28;20228;-89
2023/06/12 00:57:57;;;;;;;5.43;3.00;;;14.40;99.60;;;;;;5037747;28;20748;-89
2023/06/12 01:00:25;;;;;;;6.20;3.07;;;14.40;99.50;;;;;;5041510;28;20263;-89
2023/06/12 01:02:54;;;;;;;5.73;2.67;;;14.40;99.90;;;;;;5033919;28;20311;-89
2023/06/12 01:05:32;;;;;;;6.07;2.97;;;14.40;99.70;;;;;;5025043;28;21639;-89
2023/06/12 01:08:15;;;;;;;6.33;3.10;;;14.40;99.80;;;;;;5036852;28;20223;-89
2023/06/12 01:10:51;;;;;;;4.93;3.03;;;14.40;99.90;;;;;;5039964;28;20220;-89
2023/06/12 01:13:19;;;;;;;4.00;2.90;;;14.30;99.80;;;;;;5042790;28;20227;-89
2023/06/12 01:15:46;;;;;;;5.43;2.70;;;14.30;99.80;;;;;;5040720;28;20224;-89
2023/06/12 01:18:12;;;;;;;5.83;2.87;;;14.30;99.80;;;;;;5034077;28;20239;-88
2023/06/12 01:20:42;;;;;;;5.33;3.07;;;14.20;99.80;;;;;;5045142;28;20640;-89
2023/06/12 01:23:20;;;;;;;6.70;3.27;;;14.20;99.90;;;;;;5040293;28;20226;-88
2023/06/12 01:26:27;;;;;;;6.57;3.20;;;14.20;99.90;;;;;;5026869;28;20272;-89
2023/06/12 01:29:21;;;;;;;6.03;3.10;;;14.10;99.90;;;;;;4994408;28;20234;-89
2023/06/12 01:31:59;;;;;;;7.67;2.83;;;14.10;99.90;;;;;;5030567;28;20223;-88
2023/06/12 01:34:31;;;;;;;5.27;3.13;;;14.10;99.90;;;;;;5040492;28;21224;-90
2023/06/12 01:37:05;;;;;;;5.23;2.93;;;14.00;99.90;;;;;;5045345;28;20232;-89
2023/06/12 01:39:39;;;;;;;6.20;2.90;;;14.00;99.90;;;;;;5043525;28;20690;-89
2023/06/12 01:42:08;;;;;;;8.13;3.50;;;14.00;99.90;;;;;;5040203;28;20300;-88
2023/06/12 01:44:35;;;;;;;5.80;3.23;;;14.00;99.90;;;;;;5043342;28;20223;-89
2023/06/12 01:47:03;;;;;;;9.33;3.50;;;13.90;99.90;;;;;;5042462;28;20253;-87
2023/06/12 01:49:30;;;;;;;6.60;3.10;;;13.90;99.90;;;;;;5042939;28;20215;-88
2023/06/12 01:51:56;;;;;;;5.80;3.70;;;13.90;99.90;;;;;;5045340;28;20705;-88
2023/06/12 01:54:24;;;;;;;5.20;3.17;;;13.80;99.90;;;;;;5042431;28;20760;-88
2023/06/12 01:56:51;;;;;;;7.97;3.50;;;13.80;99.90;;;;;;5043718;28;20223;-88
2023/06/12 01:59:18;;;;;;;7.37;3.80;;;13.80;99.90;;;;;;5044894;28;20907;-88
2023/06/12 02:01:46;;;;;;;6.60;3.40;;;13.80;99.90;;;;;;5045414;28;20268;-88
2023/06/12 02:04:16;;;;;;;10.10;3.90;;;13.80;99.90;;;;;;5032080;28;20247;-88
2023/06/12 02:06:42;;;;;;;4.87;3.40;;;13.80;99.90;;;;;;5044950;28;20300;-88
2023/06/12 02:09:09;;;;;;;6.93;3.20;;;13.80;99.90;;;;;;5043411;28;20212;-89
2023/06/12 02:11:36;;;;;;;5.30;3.20;;;13.80;99.90;;;;;;5045175;28;20306;-89
2023/06/12 02:14:03;;;;;;;6.93;3.83;;;13.70;99.90;;;;;;5042113;28;20215;-90
2023/06/12 02:16:30;;;;;;;5.53;3.40;;;13.70;99.90;;;;;;5042929;28;20336;-88
2023/06/12 02:18:57;;;;;;;6.27;3.33;;;13.70;99.90;;;;;;5041094;28;20221;-88
2023/06/12 02:21:25;;;;;;;6.17;3.40;;;13.70;99.90;;;;;;5034910;28;20240;-88
2023/06/12 02:23:52;;;;;;;6.30;3.10;;;13.70;99.90;;;;;;5042783;28;20231;-88
2023/06/12 02:26:19;;;;;;;6.20;3.03;;;13.60;99.90;;;;;;5043944;28;20285;-88
2023/06/12 02:28:48;;;;;;;7.80;3.57;;;13.60;99.90;;;;;;5045070;28;20218;-88
2023/06/12 02:31:15;;;;;;;6.80;3.40;;;13.60;99.90;;;;;;5034718;28;20227;-89
2023/06/12 02:33:42;;;;;;;6.73;3.60;;;13.60;99.90;;;;;;5036524;28;20449;-89
2023/06/12 02:36:09;;;;;;;6.37;3.63;;;13.60;99.90;;;;;;5036424;28;21044;-90
2023/06/12 02:38:38;;;;;;;7.60;3.57;;;13.60;99.90;;;;;;5029904;28;20240;-89
2023/06/12 02:41:11;;;;;;;7.23;3.80;;;13.60;99.90;;;;;;5031846;28;20223;-88
2023/06/12 02:43:39;;;;;;;7.53;3.53;;;13.50;99.90;;;;;;5039567;28;20218;-88
2023/06/12 02:46:07;;;;;;;5.93;2.90;;;13.50;99.90;;;;;;5039358;28;20230;-88
2023/06/12 02:48:34;;;;;;;7.63;3.50;;;13.50;99.90;;;;;;5060668;28;20306;-90
2023/06/12 02:51:01;;;;;;;5.33;3.53;;;13.50;99.90;;;;;;5038065;28;20225;-90
2023/06/12 02:53:28;;;;;;;6.13;3.57;;;13.50;99.90;;;;;;5040271;28;20314;-90
2023/06/12 02:55:57;;;;;;;6.43;3.60;;;13.50;99.90;;;;;;5037259;28;20219;-89
2023/06/12 02:58:24;;;;;;;7.27;3.73;;;13.50;99.90;;;;;;5037554;28;21465;-89
2023/06/12 03:00:51;;;;;;;7.77;3.87;;;13.60;99.90;;;;;;5034331;28;20723;-89
2023/06/12 03:03:20;;;;;;;7.53;3.43;;;13.60;99.90;;;;;;5040049;28;20224;-89
2023/06/12 03:05:49;;;;;;;5.23;3.13;;;13.70;99.90;;;;;;5041892;28;20234;-89
2023/06/12 03:08:16;;;;;;;5.93;3.33;;;13.70;99.90;;;;;;5041765;28;20590;-89
2023/06/12 03:10:43;;;;;;;5.53;3.40;;;13.70;99.90;;;;;;5043781;28;20219;-88
2023/06/12 03:13:12;;;;;;;9.73;3.73;;;13.70;99.90;;;;;;5042376;28;20754;-89
2023/06/12 03:15:40;;;;;;;5.83;3.60;;;13.80;99.90;;;;;;5032296;28;20223;-88
2023/06/12 03:18:07;;;;;;;6.13;3.50;;;13.80;99.90;;;;;;5038768;28;20713;-88
2023/06/12 03:20:34;;;;;;;5.17;3.60;;;13.80;99.90;;;;;;5042569;28;20231;-88
2023/06/12 03:23:01;;;;;;;5.30;3.43;;;13.90;99.90;;;;;;5041288;28;20230;-88
2023/06/12 03:25:28;;;;;;;6.23;3.50;;;13.90;99.90;;;;;;5038575;28;20223;-88
2023/06/12 03:27:55;;;;;;;6.07;3.23;;;14.00;99.90;;;;;;5042523;28;20254;-88
2023/06/12 03:30:26;;;;;;;6.30;3.40;;;13.90;99.90;;;;;;5035476;28;20426;-89
2023/06/12 03:32:56;;;;;;;6.03;3.67;;;14.00;99.90;;;;;;5041539;28;20311;-89
2023/06/12 03:35:23;;;;;;;5.20;3.73;;;14.10;99.90;;;;;;5041026;28;20263;-89
2023/06/12 03:37:51;;;;;;;7.27;3.50;;;14.00;99.90;;;;;;5041291;28;20222;-88
2023/06/12 03:40:20;;;;;;;9.27;3.87;;;14.00;99.90;;;;;;5039645;28;20224;-89
2023/06/12 03:42:48;;;;;;;4.83;3.43;;;14.10;99.90;;;;;;5039536;28;20645;-89
2023/06/12 03:45:14;;;;;;;5.93;3.90;;;14.10;99.90;;;;;;5040389;28;20219;-89
2023/06/12 03:47:43;;;;;;;4.30;3.40;;;14.10;99.90;;;;;;5043198;28;20242;-90
2023/06/12 03:50:13;;;;;;;6.43;3.43;;;14.10;99.90;;;;;;5040683;28;20215;-89
2023/06/12 03:52:41;;;;;;;6.00;3.90;;;14.10;99.90;;;;;;5032877;28;20231;-90
2023/06/12 03:55:08;;;;;;;6.30;3.33;;;14.10;99.90;;;;;;5023748;28;20233;-89
2023/06/12 03:57:36;;;;;;;5.97;3.63;;;14.10;99.90;;;;;;5026082;28;20319;-88
2023/06/12 04:00:08;;;;;;;5.57;3.60;;;14.20;99.90;;;;;;5042427;28;20220;-88
2023/06/12 04:02:45;;;;;;;5.13;3.83;;;14.20;99.90;;;;;;5041430;28;20239;-89
2023/06/12 04:05:15;;;;;;;8.87;3.70;;;14.20;99.90;;;;;;5036547;28;20247;-88
2023/06/12 04:07:42;;;;;;;6.40;3.70;;;14.30;99.90;;;;;;5039138;28;20223;-88
2023/06/12 04:10:09;;;;;;;6.00;3.80;;;14.30;99.90;;;;;;5034406;28;20294;-88
2023/06/12 04:12:37;;;;;;;6.17;4.07;;;14.30;99.90;;;;;;5054289;28;20212;-88
2023/06/12 04:15:05;;;;;;;6.13;3.77;;;14.40;99.90;;;;;;5047516;28;20694;-89
2023/06/12 04:17:32;;;;;;;7.77;3.63;;;14.40;99.90;;;;;;5031149;28;20248;-90
2023/06/12 04:20:01;;;;;;;7.10;3.90;;;14.50;99.90;;;;;;5045136;28;20586;-90
2023/06/12 04:22:29;;;;;;;6.53;3.80;;;14.60;99.90;;;;;;5037117;28;20220;-90
2023/06/12 04:25:00;;;;;;;7.17;3.50;;;14.60;99.90;;;;;;5042931;28;20303;-90
2023/06/12 04:27:29;;;;;;;6.87;4.17;;;14.70;99.90;;;;;;5033489;28;20228;-90
2023/06/12 04:29:57;;;;;;;6.50;4.20;;;14.80;99.90;;;;;;5044104;28;20216;-89
2023/06/12 04:32:25;;;;;;;6.47;3.73;;;14.90;99.90;;;;;;5040729;28;20220;-88
2023/06/12 04:34:52;;;;;;;7.27;3.73;;;14.90;99.90;;;;;;5044919;28;20274;-89
2023/06/12 04:37:21;;;;;;;8.10;4.10;;;15.00;99.90;;;;;;5044582;28;20228;-89
2023/06/12 04:39:52;;;;;;;4.73;3.67;;;15.00;99.90;;;;;;5039483;28;20279;-89
2023/06/12 04:42:19;;;;;;;7.07;4.30;;;15.10;99.90;;;;;;5025423;28;20214;-88
2023/06/12 04:44:47;;;;;;;6.40;3.87;;;15.10;99.90;;;;;;5046195;28;20254;-89
2023/06/12 04:47:16;;;;;;;5.93;3.80;;;15.20;99.90;;;;;;5045118;28;20717;-91
2023/06/12 04:49:45;;;;;;;4.67;3.30;;;15.20;99.90;;;;;;5044865;28;20216;-91
2023/06/12 04:52:18;;;;;;;5.87;3.93;;;15.30;99.90;;;;;;5042135;28;20244;-89
2023/06/12 04:54:49;;;;;;;6.80;3.73;;;15.40;99.90;;;;;;5042402;28;20212;-90
2023/06/12 04:57:18;;;;;;;7.90;3.70;;;15.40;99.90;;;;;;5046506;28;20220;-91
2023/06/12 04:59:46;;;;;;;7.50;3.73;;;15.50;99.90;;;;;;5046902;28;20212;-90
2023/06/12 05:02:14;;;;;;;8.40;4.03;;;15.60;99.90;;;;;;5044664;28;20220;-90
2023/06/12 05:04:41;;;;;;;7.97;4.35;;;15.70;99.90;;;;;;5040121;28;20307;-90
2023/06/12 05:07:17;;;;;;;7.75;3.88;;;15.80;99.90;;;;;;5034605;28;20956;-90
2023/06/12 05:09:47;;;;;;;6.82;4.03;;;15.90;99.90;;;;;;5041542;28;20315;-90
2023/06/12 05:12:14;;;;;;;5.07;4.10;;;16.00;99.80;;;;;;5042230;28;20228;-90
2023/06/12 05:14:43;;;;;;;5.15;4.50;;;16.20;99.70;;;;;;5042447;28;20228;-89
2023/06/12 05:17:11;;;;;;;7.53;4.20;;;16.30;99.60;;;;;;5044545;28;20373;-90
2023/06/12 05:19:39;;;;;;;7.20;3.70;;;16.40;99.60;;;;;;5043212;28;20365;-89
2023/06/12 05:22:07;;;;;;;8.82;4.22;;;16.60;99.40;;;;;;5040735;28;20220;-90
2023/06/12 05:24:35;;;;;;;6.93;3.95;;;16.70;99.30;;;;;;5040576;28;20224;-90
2023/06/12 05:27:07;;;;;;;5.80;4.55;;;16.90;98.90;;;;;;5040850;28;20221;-91
2023/06/12 05:29:35;;;;;;;5.72;4.25;;;17.00;98.60;;;;;;5043764;28;20604;-90
2023/06/12 05:32:05;;;;;;;6.10;4.28;;;17.20;98.50;;;;;;5043826;28;20602;-91
2023/06/12 05:34:32;;;;;;;7.07;4.38;;;17.30;98.20;;;;;;5042147;28;20290;-91
2023/06/12 05:36:59;;;;;;;5.10;3.50;;;17.50;97.70;;;;;;5042453;28;20216;-91
2023/06/12 05:39:28;;;;;;;5.70;3.88;;;17.70;97.70;;;;;;5041494;28;20221;-91
2023/06/12 05:41:55;;;;;;;11.35;4.07;;;17.80;97.30;;;;;;5046895;28;20263;-91
2023/06/12 05:44:23;;;;;;;5.90;4.15;;;17.90;97.00;;;;;;5041543;28;20220;-91
2023/06/12 05:46:52;;;;;;;8.85;4.38;;;18.00;96.70;;;;;;5045027;28;20220;-91
2023/06/12 05:49:19;;;;;;;6.57;4.35;;;18.10;96.50;;;;;;5042503;28;20886;-91
2023/06/12 05:51:46;;;;;;;7.63;4.25;;;18.20;96.10;;;;;;5045624;28;20294;-91
2023/06/12 05:54:13;;;;;;;9.98;4.55;;;18.30;95.30;;;;;;5041064;28;20231;-90
2023/06/12 05:56:40;;;;;;;9.95;4.88;;;18.30;95.50;;;;;;5045321;28;20220;-92
2023/06/12 05:59:08;;;;;;;13.18;4.70;;;18.40;95.40;;;;;;5043671;28;20270;-91
2023/06/12 06:01:40;;;;;;;6.75;4.40;;;18.40;95.20;;;;;;5031095;28;20857;-93
2023/06/12 06:04:10;;;;;;;6.35;4.60;;;18.50;94.80;;;;;;5039565;28;20224;-93
2023/06/12 06:06:40;;;;;;;8.52;4.50;;;18.50;94.50;;;;;;5043622;28;20650;-93
2023/06/12 06:09:10;;;;;;;7.57;4.78;;;18.50;94.40;;;;;;5047526;28;20224;-94
2023/06/12 06:11:37;;;;;;;7.13;4.57;;;18.60;93.60;;;;;;5046334;28;20220;-93
2023/06/12 06:14:05;;;;;;;7.30;4.43;;;18.60;94.10;;;;;;5044501;28;20220;-92
2023/06/12 06:16:34;;;;;;;14.57;5.13;;;18.70;93.90;;;;;;5057320;28;20434;-92
2023/06/12 06:19:05;;;;;;;5.03;4.15;;;18.70;93.70;;;;;;5041623;23;20217;-79
2023/06/12 06:21:33;;;;;;;5.68;4.35;;;18.70;93.90;;;;;;5021494;28;21944;-78
2023/06/12 06:24:00;;;;;;;5.50;4.07;;;18.80;94.00;;;;;;5016377;28;20870;-79
2023/06/12 06:26:28;;;;;;;5.13;4.40;;;18.80;93.40;;;;;;5008804;28;21011;-79
2023/06/12 06:28:55;;;;;;;7.85;4.45;;;18.90;93.00;;;;;;5002294;28;20233;-79
2023/06/12 06:31:22;;;;;;;5.10;4.35;;;18.90;93.40;;;;;;5000757;28;20218;-79
2023/06/12 06:33:48;;;;;;;6.20;4.32;;;19.10;93.40;;;;;;5002898;28;20221;-78
2023/06/12 06:36:16;;;;;;;4.30;3.90;;;19.30;92.30;;;;;;5002911;28;20687;-78
2023/06/12 06:38:43;;;;;;;10.45;4.15;;;19.50;92.80;;;;;;5000785;28;20245;-77
2023/06/12 06:41:10;;;;;;;5.43;3.92;;;19.60;92.00;;;;;;4999238;28;20316;-76
2023/06/12 06:43:36;;;;;;;7.45;4.43;;;19.70;91.50;;;;;;5000595;28;20299;-79
2023/06/12 06:46:07;;;;;;;4.93;4.13;;;19.80;90.90;;;;;;5002685;28;20222;-78
2023/06/12 06:48:35;;;;;;;4.93;4.30;;;19.90;90.20;;;;;;5001089;28;20213;-78
2023/06/12 06:51:04;;;;;;;5.93;4.22;;;20.00;90.60;;;;;;5000275;28;20232;-78
2023/06/12 06:53:32;;;;;;;6.70;4.60;;;20.00;90.80;;;;;;5000493;28;20751;-78
2023/06/12 06:55:59;;;;;;;6.63;4.75;;;20.10;90.30;;;;;;5002833;28;20656;-80
2023/06/12 06:58:26;;;;;;;5.80;4.25;;;20.30;89.90;;;;;;5000016;28;20233;-76
2023/06/12 07:00:53;;;;;;;5.75;4.30;;;20.40;90.50;;;;;;4999737;28;20316;-78
2023/06/12 07:03:20;;;;;;;7.55;4.30;;;20.70;90.30;;;;;;4998231;28;20313;-77
2023/06/12 07:05:47;;;;;;;7.78;3.97;;;21.10;90.50;;;;;;4994913;28;20229;-80
2023/06/12 07:08:14;;;;;;;5.60;3.95;;;21.60;90.30;;;;;;4999501;28;20303;-76
2023/06/12 07:10:43;;;;;;;6.18;4.10;;;22.20;88.00;;;;;;5001653;28;20216;-79
2023/06/12 07:13:12;;;;;;;7.53;4.88;;;23.00;85.50;;;;;;5001074;28;20213;-81
2023/06/12 07:15:44;;;;;;;6.95;3.72;;;23.80;79.90;;;;;;5000761;28;20241;-79
2023/06/12 07:18:11;;;;;;;6.78;4.18;;;24.50;80.20;;;;;;4998663;28;20328;-78
2023/06/12 07:20:38;;;;;;;4.45;3.80;;;25.30;79.50;;;;;;4992056;28;20825;-78
2023/06/12 07:23:05;;;;;;;6.38;3.80;;;26.00;77.70;;;;;;4990471;28;20336;-77
2023/06/12 07:25:32;;;;;;;4.63;3.75;;;26.80;76.50;;;;;;4994520;28;20295;-79
2023/06/12 07:28:02;;;;;;;7.38;4.53;;;27.60;71.70;;;;;;4990988;28;20253;-78
2023/06/12 07:30:30;;;;;;;4.97;3.90;;;28.30;69.10;;;;;;4998007;28;20229;-79
2023/06/12 07:32:57;;;;;;;7.60;3.95;;;28.90;67.60;;;;;;5016311;28;20274;-79
2023/06/12 07:35:23;;;;;;;4.47;3.72;;;29.50;61.70;;;;;;4999521;28;21864;-79
2023/06/12 07:37:51;;;;;;;5.82;3.90;;;29.90;62.00;;;;;;4999031;28;20233;-79
2023/06/12 07:40:18;;;;;;;6.43;3.80;;;30.20;57.50;;;;;;4996062;28;20260;-80
2023/06/12 07:42:45;;;;;;;6.95;3.92;;;30.50;58.20;;;;;;4997260;28;20275;-79
2023/06/12 07:45:14;;;;;;;5.80;3.72;;;30.80;57.60;;;;;;4999335;28;20245;-79
2023/06/12 07:47:43;;;;;;;5.90;3.92;;;31.10;54.60;;;;;;4991339;28;20225;-78
2023/06/12 07:50:10;;;;;;;6.75;3.55;;;31.20;52.00;;;;;;5003111;28;20304;-79
2023/06/12 07:52:38;;;;;;;4.13;3.50;;;31.30;51.30;;;;;;5003235;28;20269;-77
2023/06/12 07:55:06;;;;;;;5.38;3.58;;;31.40;51.90;;;;;;5003231;28;20252;-79
2023/06/12 07:57:34;;;;;;;7.05;3.63;;;31.40;51.40;;;;;;5017650;28;20229;-79
2023/06/12 08:00:05;;;;;;;4.90;3.20;;;31.40;49.00;;;;;;5019199;28;20221;-79
2023/06/12 08:02:35;;;;;;;4.60;3.60;;;31.40;49.00;;;;;;4998657;28;20323;-79
2023/06/12 08:05:03;;;;;;;7.07;3.25;;;31.50;49.00;;;;;;5018300;28;20264;-80
2023/06/12 08:07:31;;;;;;;7.13;3.47;;;31.60;49.10;;;;;;5010113;28;20676;-80
2023/06/12 08:09:57;;;;;;;5.72;3.72;;;31.80;50.00;;;;;;5004317;28;20217;-80
2023/06/12 08:12:24;;;;;;;3.42;3.13;;;32.00;49.90;;;;;;4996556;28;20287;-78
2023/06/12 08:14:53;;;;;;;3.95;3.10;;;32.30;47.50;;;;;;5003007;28;20308;-78
2023/06/12 08:17:21;;;;;;;4.60;3.10;;;32.50;45.40;;;;;;4996355;28;20218;-79
2023/06/12 08:19:49;;;;;;;6.85;3.30;;;32.70;47.60;;;;;;4994752;28;20276;-83
2023/06/12 08:22:16;;;;;;;4.30;3.17;;;32.90;46.70;;;;;;5000012;28;20226;-79
2023/06/12 08:24:45;;;;;;;5.75;3.63;;;33.00;47.00;;;;;;5014909;28;20304;-82
2023/06/12 08:27:12;;;;;;;5.05;3.85;;;33.20;46.80;;;;;;4999716;28;20293;-80
2023/06/12 08:29:40;;;;;;;5.03;3.22;;;33.50;46.70;;;;;;4997586;28;20241;-81
2023/06/12 08:32:08;;;;;;;5.45;3.42;;;33.80;45.70;;;;;;4996528;28;20235;-82
2023/06/12 08:34:34;;;;;;;6.90;3.65;;;34.00;43.30;;;;;;5000732;28;20229;-82
2023/06/12 08:37:03;;;;;;;3.85;3.45;;;34.30;44.20;;;;;;5002581;28;20519;-82
2023/06/12 08:39:29;;;;;;;7.10;3.50;;;34.40;43.30;;;;;;4989029;28;20335;-83
2023/06/12 08:42:04;;;;;;;6.00;3.53;;;34.50;43.30;;;;;;4998701;28;20262;-82
2023/06/12 08:44:32;;;;;;;4.32;3.60;;;34.70;42.50;;;;;;5007180;28;20217;-81
2023/06/12 08:47:02;;;;;;;6.75;3.53;;;34.90;41.90;;;;;;5015996;23;20235;-92
2023/06/12 08:49:43;;;;;;;6.13;3.45;;;35.00;40.90;;;;;;5051325;28;20229;-95
2023/06/12 08:52:13;;;;;;;5.93;3.30;;;35.00;38.40;;;;;;5038270;23;20719;-83
2023/06/12 08:54:40;;;;;;;3.88;3.22;;;34.90;39.50;;;;;;5015725;28;20217;-82
2023/06/12 08:57:08;;;;;;;4.60;3.25;;;34.80;40.90;;;;;;5031488;28;20331;-82
2023/06/12 08:59:35;;;;;;;6.97;3.35;;;34.80;41.20;;;;;;5031516;28;20228;-83
2023/06/12 09:02:03;;;;;;;13.32;3.33;;;35.00;41.10;;;;;;5032408;28;20237;-82
2023/06/12 09:04:41;;;;;;;4.72;3.15;;;35.30;40.20;;;;;;5030761;28;20397;-83
2023/06/12 09:07:08;;;;;;;9.35;3.80;;;35.60;40.00;;;;;;5031200;28;20794;-83
2023/06/12 09:09:40;;;;;;;3.63;2.95;;;35.90;40.30;;;;;;5032791;28;20221;-83
2023/06/12 09:12:12;;;;;;;5.55;3.20;;;36.20;39.80;;;;;;5036066;28;20216;-83
2023/06/12 09:14:41;;;;;;;4.30;3.28;;;36.40;37.80;;;;;;5046940;28;20937;-83
2023/06/12 09:17:09;;;;;;;5.85;3.60;;;36.50;36.60;;;;;;5045020;28;20236;-83
2023/06/12 09:19:37;;;;;;;5.68;3.20;;;36.50;36.50;;;;;;5030664;28;20270;-83
2023/06/12 09:22:04;;;;;;;4.20;3.20;;;36.30;35.50;;;;;;5028985;28;20506;-81
2023/06/12 09:24:31;;;;;;;3.13;2.83;;;36.10;34.20;;;;;;5049015;28;20230;-81
2023/06/12 09:27:00;;;;;;;5.35;3.20;;;35.80;34.60;;;;;;5048865;28;20234;-82
2023/06/12 09:29:27;;;;;;;4.43;2.88;;;35.50;34.80;;;;;;5044739;28;20216;-81
2023/06/12 09:31:54;;;;;;;3.28;3.00;;;35.10;33.50;;;;;;5034168;28;20216;-82
2023/06/12 09:34:23;;;;;;;5.70;2.80;;;34.80;35.40;;;;;;5035303;28;20259;-82
2023/06/12 09:36:50;;;;;;;3.55;2.90;;;34.70;36.50;;;;;;5030402;28;20248;-82
2023/06/12 09:39:25;;;;;;;5.47;3.08;;;34.80;36.60;;;;;;5029869;28;20228;-81
2023/06/12 09:41:52;;;;;;;4.00;2.88;;;35.10;35.80;;;;;;5045458;28;20591;-82
2023/06/12 09:44:23;;;;;;;3.78;2.80;;;35.40;36.40;;;;;;5037896;28;20221;-82
2023/06/12 09:46:50;;;;;;;3.75;2.80;;;35.80;35.90;;;;;;5035758;28;20216;-82
2023/06/12 09:49:20;;;;;;;6.43;3.05;;;36.20;36.20;;;;;;5048829;28;20224;-81
2023/06/12 09:51:49;;;;;;;3.78;2.90;;;36.60;33.20;;;;;;5011544;28;20703;-82
2023/06/12 09:54:18;;;;;;;3.58;3.10;;;36.60;32.60;;;;;;5028423;28;20224;-82
2023/06/12 09:56:46;;;;;;;4.20;2.88;;;36.60;32.60;;;;;;5031922;28;20248;-81
2023/06/12 09:59:17;;;;;;;7.88;3.20;;;36.50;33.20;;;;;;5036968;28;20540;-82
2023/06/12 10:01:47;;;;;;;5.90;3.08;;;36.40;32.10;;;;;;5041317;28;20231;-82
2023/06/12 10:04:18;;;;;;;3.50;3.20;;;36.10;31.60;;;;;;5050347;28;20287;-82
2023/06/12 10:06:46;;;;;;;6.88;3.33;;;35.70;31.70;;;;;;5017002;28;20226;-82
2023/06/12 10:09:13;;;;;;;3.40;3.10;;;35.60;32.10;;;;;;5011849;28;20774;-82
2023/06/12 10:11:41;;;;;;;5.88;3.30;;;35.20;31.30;;;;;;5017008;28;20236;-82
2023/06/12 10:14:12;;;;;;;3.05;2.75;;;35.00;32.90;;;;;;5028507;28;20303;-81
2023/06/12 10:16:42;;;;;;;7.05;3.65;;;34.90;32.70;;;;;;5018871;28;20279;-82
2023/06/12 10:19:16;;;;;;;4.63;3.10;;;34.60;31.40;;;;;;5018446;28;20912;-82
2023/06/12 10:21:45;;;;;;;4.78;3.10;;;34.50;31.50;;;;;;5027731;28;20664;-82
2023/06/12 10:24:12;;;;;;;4.57;2.88;;;34.30;31.60;;;;;;5027885;28;20225;-82
2023/06/12 10:26:39;;;;;;;4.22;2.70;;;34.30;32.60;;;;;;5027081;28;20232;-81
2023/06/12 10:29:30;;;;;;;4.25;2.90;;;34.30;32.60;;;;;;5027093;28;20645;-82
2023/06/12 10:32:04;;;;;;;5.90;3.50;;;34.30;32.90;;;;;;5027833;28;20754;-82
2023/06/12 10:34:34;;;;;;;50.95;9.30;;;34.50;32.30;;;;;;5029425;28;20221;-81
2023/06/12 10:37:22;;;;;;;3.78;3.20;;;34.80;33.30;;;;;;5047661;28;20747;-82
2023/06/12 10:39:49;;;;;;;3.72;2.60;;;35.00;31.70;;;;;;5009392;28;20305;-82
2023/06/12 10:42:18;;;;;;;6.57;2.95;;;35.40;31.30;;;;;;5055161;28;20232;-82
2023/06/12 10:44:48;;;;;;;18.02;4.68;;;35.40;31.10;;;;;;5047418;28;20324;-82
2023/06/12 10:47:20;;;;;;;5.28;3.20;;;35.50;31.80;;;;;;5029473;28;20319;-82
2023/06/12 10:49:58;;;;;;;6.35;3.47;;;35.70;31.70;;;;;;5030293;28;20225;-82
2023/06/12 10:52:25;;;;;;;5.53;2.65;;;35.80;30.80;;;;;;5024663;28;20228;-82
2023/06/12 10:55:16;;;;;;;4.60;2.80;;;35.90;30.70;;;;;;5034878;28;20350;-83
2023/06/12 10:57:48;;;;;;;6.00;3.00;;;36.00;30.70;;;;;;5038045;28;20308;-83
2023/06/12 11:00:17;;;;;;;5.45;2.70;;;36.10;30.60;;;;;;5029280;28;20959;-83
2023/06/12 11:02:46;;;;;;;3.80;2.67;;;36.20;31.00;;;;;;5024790;28;20274;-83
2023/06/12 11:05:19;;;;;;;7.32;3.10;;;36.40;31.10;;;;;;5017516;28;20274;-81
2023/06/12 11:07:48;;;;;;;5.78;3.00;;;36.70;30.40;;;;;;5028622;28;20223;-83
2023/06/12 11:10:16;;;;;;;4.43;2.88;;;37.00;29.80;;;;;;5039464;28;20882;-83
2023/06/12 11:12:47;;;;;;;3.05;2.72;;;37.10;28.60;;;;;;5024964;28;21300;-82
2023/06/12 11:15:14;;;;;;;3.08;2.60;;;37.10;28.50;;;;;;5025636;28;20732;-82
2023/06/12 11:17:41;;;;;;;4.78;2.75;;;37.00;28.90;;;;;;5024332;28;20227;-82
2023/06/12 11:20:09;;;;;;;3.97;2.70;;;36.90;29.20;;;;;;5016000;28;20625;-82
2023/06/12 11:22:37;;;;;;;2.80;2.60;;;36.90;29.30;;;;;;5028618;28;20229;-81
2023/06/12 11:25:05;;;;;;;4.57;2.65;;;36.90;28.60;;;;;;5032885;28;20227;-81
2023/06/12 11:27:34;;;;;;;6.47;2.78;;;36.90;28.70;;;;;;5031962;28;20221;-81
2023/06/12 11:30:08;;;;;;;3.15;2.60;;;37.00;29.20;;;;;;5029640;28;20294;-81
2023/06/12 11:32:34;;;;;;;4.25;2.88;;;36.90;28.50;;;;;;5038810;28;20216;-81
2023/06/12 11:35:03;;;;;;;3.53;2.50;;;36.90;28.60;;;;;;5025510;28;20248;-82
2023/06/12 11:37:31;;;;;;;4.53;2.58;;;36.90;29.00;;;;;;5028684;28;20251;-82
2023/06/12 11:40:08;;;;;;;3.75;2.75;;;36.90;28.70;;;;;;5036953;28;20221;-81
2023/06/12 11:42:36;;;;;;;2.92;2.38;;;36.80;28.00;;;;;;5025937;28;20224;-83
2023/06/12 11:45:04;;;;;;;3.13;2.70;;;36.70;28.00;;;;;;5028982;28;20247;-82
2023/06/12 11:47:31;;;;;;;3.80;2.53;;;36.50;28.30;;;;;;5025827;28;20297;-83
2023/06/12 11:49:58;;;;;;;4.10;2.80;;;36.50;27.80;;;;;;5029206;28;20255;-85
2023/06/12 11:52:25;;;;;;;4.55;2.85;;;36.50;28.50;;;;;;5038236;28;20884;-82
2023/06/12 11:54:57;;;;;;;4.75;2.75;;;36.70;28.50;;;;;;5032579;28;20283;-82
2023/06/12 11:57:27;;;;;;;5.18;3.03;;;36.80;27.90;;;;;;5024856;28;20232;-82
2023/06/12 11:59:56;;;;;;;2.60;2.40;;;36.80;28.00;;;;;;5029376;28;20220;-82
2023/06/12 12:02:32;;;;;;;4.78;2.65;;;36.90;28.20;;;;;;5023350;28;20233;-82
2023/06/12 12:05:03;;;;;;;4.90;2.95;;;36.90;28.20;;;;;;5022521;28;20223;-82
2023/06/12 12:07:32;;;;;;;4.93;2.83;;;37.10;28.00;;;;;;5025230;28;20752;-82
2023/06/12 12:10:10;;;;;;;4.13;3.00;;;37.10;28.00;;;;;;5023768;28;20220;-82
2023/06/12 12:12:46;;;;;;;5.18;2.78;;;37.20;27.40;;;;;;5022679;28;20462;-82
2023/06/12 12:15:14;;;;;;;5.40;2.90;;;37.30;27.10;;;;;;5028545;28;20438;-82
2023/06/12 12:17:42;;;;;;;3.53;2.85;;;37.40;27.70;;;;;;5026631;28;20240;-82
2023/06/12 12:20:15;;;;;;;3.83;3.08;;;37.50;27.10;;;;;;5027191;28;20841;-82
2023/06/12 12:22:43;;;;;;;6.25;2.55;;;37.40;26.90;;;;;;5024801;28;20220;-82
2023/06/12 12:25:11;;;;;;;4.47;2.83;;;37.40;27.50;;;;;;5032738;28;20225;-82
2023/06/12 12:27:39;;;;;;;6.45;2.72;;;37.50;27.50;;;;;;5027768;28;20235;-82
2023/06/12 12:30:10;;;;;;;4.72;2.80;;;37.50;27.40;;;;;;5030300;28;20563;-82
2023/06/12 12:32:37;;;;;;;4.78;3.17;;;37.60;27.40;;;;;;5031653;28;20244;-82
2023/06/12 12:35:04;;;;;;;4.68;2.65;;;37.60;27.40;;;;;;5030605;28;20307;-82
2023/06/12 12:37:31;;;;;;;3.60;2.72;;;37.60;27.10;;;;;;5033008;28;20225;-82
2023/06/12 12:39:57;;;;;;;3.05;2.53;;;37.70;27.10;;;;;;5032894;28;20244;-82
2023/06/12 12:42:24;;;;;;;4.28;2.60;;;37.70;27.30;;;;;;5033666;28;20232;-82
2023/06/12 12:44:51;;;;;;;6.25;2.80;;;37.80;27.20;;;;;;5043148;28;20231;-82
2023/06/12 12:47:20;;;;;;;5.00;2.90;;;37.80;26.70;;;;;;5027389;28;20316;-82
2023/06/12 12:49:46;;;;;;;3.95;2.78;;;37.80;26.80;;;;;;5031733;28;20749;-82
2023/06/12 12:52:14;;;;;;;5.07;2.85;;;37.80;26.70;;;;;;5023070;28;20227;-82
2023/06/12 12:54:41;;;;;;;4.32;2.55;;;37.80;26.30;;;;;;5025250;28;20266;-82